sensor_id;sensor_type;location;lat;lon;timestamp;P1;durP1;ratioP1;P2;durP2;ratioP2
84840;SDS011;75088;53.114;18.040;2023-12-20T17:20:56;2.70;;;2.00;;
84840;SDS011;75088;53.114;18.040;2023-12-20T17:22:03;4.20;;;1.60;;
84840;SDS011;75088;53.114;18.040;2023-12-20T17:23:11;2.90;;;1.80;;
84840;SDS011;75088;53.114;18.040;2023-12-20T17:24:17;4.80;;;1.80;;
84840;SDS011;75088;53.114;18.040;2023-12-20T17:25:24;3.40;;;1.70;;
84840;SDS011;75088;53.114;18.040;2023-12-20T17:26:32;1.70;;;1.10;;
84840;SDS011;75088;53.114;18.040;2023-12-20T17:27:39;3.10;;;1.40;;
84840;SDS011;75088;53.114;18.040;2023-12-20T17:28:46;3.50;;;1.40;;
84840;SDS011;75088;53.114;18.040;2023-12-20T17:29:54;2.90;;;1.30;;
84840;SDS011;75088;53.114;18.040;2023-12-20T17:31:01;3.70;;;1.60;;
84840;SDS011;75088;53.114;18.040;2023-12-20T17:32:09;7.40;;;3.70;;
84840;SDS011;75088;53.114;18.040;2023-12-20T17:33:16;3.70;;;2.00;;
84840;SDS011;75088;53.114;18.040;2023-12-20T17:34:23;4.80;;;2.20;;
84840;SDS011;75088;53.114;18.040;2023-12-20T17:35:30;4.30;;;1.90;;
84840;SDS011;75088;53.114;18.040;2023-12-20T17:36:39;7.20;;;4.20;;
84840;SDS011;75088;53.114;18.040;2023-12-20T17:37:49;4.10;;;1.70;;
84840;SDS011;75088;53.114;18.040;2023-12-20T17:38:56;3.10;;;2.00;;
84840;SDS011;75088;53.114;18.040;2023-12-20T17:40:06;4.20;;;2.20;;
84840;SDS011;75088;53.114;18.040;2023-12-20T17:41:14;4.00;;;1.90;;
84840;SDS011;75088;53.114;18.040;2023-12-20T17:42:21;3.40;;;2.00;;
84840;SDS011;75088;53.114;18.040;2023-12-20T17:43:29;4.90;;;2.00;;
84840;SDS011;75088;53.114;18.040;2023-12-20T17:44:36;3.60;;;1.80;;
84840;SDS011;75088;53.114;18.040;2023-12-20T17:45:43;4.20;;;2.00;;
84840;SDS011;75088;53.114;18.040;2023-12-20T17:46:50;3.50;;;2.20;;
84840;SDS011;75088;53.114;18.040;2023-12-20T17:47:57;3.40;;;1.50;;
84840;SDS011;75088;53.114;18.040;2023-12-20T17:49:04;3.00;;;1.50;;
84840;SDS011;75088;53.114;18.040;2023-12-20T17:50:11;4.30;;;2.30;;
84840;SDS011;75088;53.114;18.040;2023-12-20T17:51:18;7.00;;;3.60;;
84840;SDS011;75088;53.114;18.040;2023-12-20T17:52:25;72.60;;;31.30;;
84840;SDS011;75088;53.114;18.040;2023-12-20T17:53:32;131.30;;;57.10;;
84840;SDS011;75088;53.114;18.040;2023-12-20T17:54:39;48.20;;;18.40;;
84840;SDS011;75088;53.114;18.040;2023-12-20T17:55:46;9.10;;;4.80;;
84840;SDS011;75088;53.114;18.040;2023-12-20T17:56:53;4.30;;;2.40;;
84840;SDS011;75088;53.114;18.040;2023-12-20T17:58:02;5.00;;;2.00;;
84840;SDS011;75088;53.114;18.040;2023-12-20T17:59:09;4.30;;;1.90;;
84840;SDS011;75088;53.114;18.040;2023-12-20T18:00:17;3.80;;;1.40;;
84840;SDS011;75088;53.114;18.040;2023-12-20T18:01:26;3.70;;;1.60;;
84840;SDS011;75088;53.114;18.040;2023-12-20T18:02:33;4.40;;;2.70;;
84840;SDS011;75088;53.114;18.040;2023-12-20T18:03:40;5.70;;;2.50;;
84840;SDS011;75088;53.114;18.040;2023-12-20T18:04:47;4.80;;;2.40;;
84840;SDS011;75088;53.114;18.040;2023-12-20T18:05:54;4.50;;;1.90;;
84840;SDS011;75088;53.114;18.040;2023-12-20T18:07:01;7.10;;;3.10;;
84840;SDS011;75088;53.114;18.040;2023-12-20T18:08:09;3.80;;;2.10;;
84840;SDS011;75088;53.114;18.040;2023-12-20T18:09:16;5.30;;;2.80;;
84840;SDS011;75088;53.114;18.040;2023-12-20T18:10:24;3.90;;;2.30;;
84840;SDS011;75088;53.114;18.040;2023-12-20T18:11:31;4.90;;;2.10;;
84840;SDS011;75088;53.114;18.040;2023-12-20T18:12:38;4.90;;;2.50;;
84840;SDS011;75088;53.114;18.040;2023-12-20T18:13:45;4.60;;;2.70;;
84840;SDS011;75088;53.114;18.040;2023-12-20T18:14:52;5.30;;;2.80;;
84840;SDS011;75088;53.114;18.040;2023-12-20T18:15:59;6.30;;;2.70;;
84840;SDS011;75088;53.114;18.040;2023-12-20T18:17:06;5.00;;;2.40;;
84840;SDS011;75088;53.114;18.040;2023-12-20T18:18:13;5.30;;;2.10;;
84840;SDS011;75088;53.114;18.040;2023-12-20T18:19:20;5.20;;;2.80;;
84840;SDS011;75088;53.114;18.040;2023-12-20T18:20:27;4.30;;;2.20;;
84840;SDS011;75088;53.114;18.040;2023-12-20T18:21:34;5.90;;;2.60;;
84840;SDS011;75088;53.114;18.040;2023-12-20T18:22:42;5.00;;;2.50;;
84840;SDS011;75088;53.114;18.040;2023-12-20T18:23:49;5.90;;;3.20;;
84840;SDS011;75088;53.114;18.040;2023-12-20T18:24:56;4.80;;;2.70;;
84840;SDS011;75088;53.114;18.040;2023-12-20T18:26:03;5.00;;;2.50;;
84840;SDS011;75088;53.114;18.040;2023-12-20T18:27:10;5.20;;;2.20;;
84840;SDS011;75088;53.114;18.040;2023-12-20T18:28:17;5.60;;;2.30;;
84840;SDS011;75088;53.114;18.040;2023-12-20T18:29:25;7.00;;;3.20;;
84840;SDS011;75088;53.114;18.040;2023-12-20T18:30:31;6.20;;;2.50;;
84840;SDS011;75088;53.114;18.040;2023-12-20T18:31:38;7.00;;;3.20;;
84840;SDS011;75088;53.114;18.040;2023-12-20T18:32:47;8.60;;;3.30;;
84840;SDS011;75088;53.114;18.040;2023-12-20T18:33:53;7.00;;;2.80;;
84840;SDS011;75088;53.114;18.040;2023-12-20T18:35:00;6.30;;;2.40;;
84840;SDS011;75088;53.114;18.040;2023-12-20T18:36:08;6.60;;;2.30;;
84840;SDS011;75088;53.114;18.040;2023-12-20T18:37:15;6.90;;;2.50;;
84840;SDS011;75088;53.114;18.040;2023-12-20T18:38:22;6.80;;;2.10;;
84840;SDS011;75088;53.114;18.040;2023-12-20T18:39:33;6.00;;;3.10;;
84840;SDS011;75088;53.114;18.040;2023-12-20T18:40:40;6.90;;;2.70;;
84840;SDS011;75088;53.114;18.040;2023-12-20T18:41:51;4.10;;;2.20;;
84840;SDS011;75088;53.114;18.040;2023-12-20T18:42:58;6.20;;;2.70;;
84840;SDS011;75088;53.114;18.040;2023-12-20T18:44:06;7.60;;;2.20;;
84840;SDS011;75088;53.114;18.040;2023-12-20T18:45:13;4.70;;;2.20;;
84840;SDS011;75088;53.114;18.040;2023-12-20T18:46:20;5.00;;;1.60;;
84840;SDS011;75088;53.114;18.040;2023-12-20T18:47:28;4.30;;;1.70;;
84840;SDS011;75088;53.114;18.040;2023-12-20T18:48:35;4.00;;;1.70;;
84840;SDS011;75088;53.114;18.040;2023-12-20T18:49:44;4.70;;;1.90;;
84840;SDS011;75088;53.114;18.040;2023-12-20T18:50:51;5.10;;;2.50;;
84840;SDS011;75088;53.114;18.040;2023-12-20T18:51:58;6.00;;;1.90;;
84840;SDS011;75088;53.114;18.040;2023-12-20T18:53:06;6.80;;;2.10;;
84840;SDS011;75088;53.114;18.040;2023-12-20T18:54:13;5.80;;;1.80;;
84840;SDS011;75088;53.114;18.040;2023-12-20T18:55:21;5.10;;;1.90;;
84840;SDS011;75088;53.114;18.040;2023-12-20T18:56:29;4.60;;;1.80;;
84840;SDS011;75088;53.114;18.040;2023-12-20T18:57:36;5.10;;;1.70;;
84840;SDS011;75088;53.114;18.040;2023-12-20T18:58:43;7.50;;;2.60;;
84840;SDS011;75088;53.114;18.040;2023-12-20T18:59:50;6.50;;;1.90;;
84840;SDS011;75088;53.114;18.040;2023-12-20T19:00:57;5.60;;;2.20;;
84840;SDS011;75088;53.114;18.040;2023-12-20T19:02:05;6.30;;;2.20;;
84840;SDS011;75088;53.114;18.040;2023-12-20T19:03:13;5.70;;;2.10;;
84840;SDS011;75088;53.114;18.040;2023-12-20T19:04:19;5.80;;;2.10;;
84840;SDS011;75088;53.114;18.040;2023-12-20T19:05:27;4.60;;;1.70;;
84840;SDS011;75088;53.114;18.040;2023-12-20T19:06:33;4.80;;;1.70;;
84840;SDS011;75088;53.114;18.040;2023-12-20T19:07:40;6.30;;;2.00;;
84840;SDS011;75088;53.114;18.040;2023-12-20T19:08:47;4.10;;;2.00;;
84840;SDS011;75088;53.114;18.040;2023-12-20T19:09:56;4.20;;;1.80;;
84840;SDS011;75088;53.114;18.040;2023-12-20T19:11:03;4.50;;;2.20;;
84840;SDS011;75088;53.114;18.040;2023-12-20T19:12:10;4.00;;;1.80;;
84840;SDS011;75088;53.114;18.040;2023-12-20T19:13:17;7.40;;;3.60;;
84840;SDS011;75088;53.114;18.040;2023-12-20T19:14:23;6.00;;;1.90;;
84840;SDS011;75088;53.114;18.040;2023-12-20T19:15:30;6.10;;;2.30;;
84840;SDS011;75088;53.114;18.040;2023-12-20T19:16:37;5.60;;;1.80;;
84840;SDS011;75088;53.114;18.040;2023-12-20T19:17:44;5.70;;;1.70;;
84840;SDS011;75088;53.114;18.040;2023-12-20T19:18:52;8.80;;;2.20;;
84840;SDS011;75088;53.114;18.040;2023-12-20T19:19:59;5.10;;;1.80;;
84840;SDS011;75088;53.114;18.040;2023-12-20T19:21:08;3.70;;;1.80;;
84840;SDS011;75088;53.114;18.040;2023-12-20T19:22:15;4.80;;;1.60;;
84840;SDS011;75088;53.114;18.040;2023-12-20T19:23:22;3.10;;;1.60;;
84840;SDS011;75088;53.114;18.040;2023-12-20T19:24:29;4.90;;;1.80;;
84840;SDS011;75088;53.114;18.040;2023-12-20T19:25:36;5.00;;;2.00;;
84840;SDS011;75088;53.114;18.040;2023-12-20T19:26:43;5.30;;;2.00;;
84840;SDS011;75088;53.114;18.040;2023-12-20T19:27:50;8.00;;;2.30;;
84840;SDS011;75088;53.114;18.040;2023-12-20T19:28:57;3.20;;;1.70;;
84840;SDS011;75088;53.114;18.040;2023-12-20T19:30:05;6.00;;;2.40;;
84840;SDS011;75088;53.114;18.040;2023-12-20T19:31:13;5.20;;;1.90;;
84840;SDS011;75088;53.114;18.040;2023-12-20T19:32:20;3.10;;;1.80;;
84840;SDS011;75088;53.114;18.040;2023-12-20T19:33:28;5.70;;;2.00;;
84840;SDS011;75088;53.114;18.040;2023-12-20T19:34:40;6.80;;;2.80;;
84840;SDS011;75088;53.114;18.040;2023-12-20T19:35:47;6.10;;;2.40;;
84840;SDS011;75088;53.114;18.040;2023-12-20T19:36:54;3.50;;;2.00;;
84840;SDS011;75088;53.114;18.040;2023-12-20T19:38:01;4.50;;;1.60;;
84840;SDS011;75088;53.114;18.040;2023-12-20T19:39:08;5.30;;;2.10;;
84840;SDS011;75088;53.114;18.040;2023-12-20T19:40:15;4.80;;;1.70;;
84840;SDS011;75088;53.114;18.040;2023-12-20T19:41:22;3.50;;;1.50;;
84840;SDS011;75088;53.114;18.040;2023-12-20T19:42:29;4.60;;;2.10;;
84840;SDS011;75088;53.114;18.040;2023-12-20T19:43:40;5.90;;;2.50;;
84840;SDS011;75088;53.114;18.040;2023-12-20T19:44:47;24.10;;;8.00;;
84840;SDS011;75088;53.114;18.040;2023-12-20T19:45:54;5.90;;;2.60;;
84840;SDS011;75088;53.114;18.040;2023-12-20T19:47:01;8.50;;;2.60;;
84840;SDS011;75088;53.114;18.040;2023-12-20T19:48:08;4.60;;;2.10;;
84840;SDS011;75088;53.114;18.040;2023-12-20T19:49:15;4.90;;;1.90;;
84840;SDS011;75088;53.114;18.040;2023-12-20T19:50:22;3.80;;;1.50;;
84840;SDS011;75088;53.114;18.040;2023-12-20T19:51:31;4.50;;;1.70;;
84840;SDS011;75088;53.114;18.040;2023-12-20T19:52:38;3.70;;;1.90;;
84840;SDS011;75088;53.114;18.040;2023-12-20T19:53:45;5.10;;;1.90;;
84840;SDS011;75088;53.114;18.040;2023-12-20T19:54:52;5.10;;;2.10;;
84840;SDS011;75088;53.114;18.040;2023-12-20T19:55:59;4.90;;;1.80;;
84840;SDS011;75088;53.114;18.040;2023-12-20T19:57:06;7.10;;;2.80;;
84840;SDS011;75088;53.114;18.040;2023-12-20T19:58:13;7.10;;;2.60;;
84840;SDS011;75088;53.114;18.040;2023-12-20T19:59:19;6.10;;;1.80;;
84840;SDS011;75088;53.114;18.040;2023-12-20T20:00:27;4.00;;;1.70;;
84840;SDS011;75088;53.114;18.040;2023-12-20T20:01:34;5.70;;;1.90;;
84840;SDS011;75088;53.114;18.040;2023-12-20T20:02:44;4.50;;;1.40;;
84840;SDS011;75088;53.114;18.040;2023-12-20T20:03:51;7.50;;;2.40;;
84840;SDS011;75088;53.114;18.040;2023-12-20T20:04:58;6.00;;;2.00;;
84840;SDS011;75088;53.114;18.040;2023-12-20T20:06:06;4.80;;;2.30;;
84840;SDS011;75088;53.114;18.040;2023-12-20T20:07:13;6.60;;;2.40;;
84840;SDS011;75088;53.114;18.040;2023-12-20T20:08:23;8.10;;;2.40;;
84840;SDS011;75088;53.114;18.040;2023-12-20T20:09:30;6.00;;;2.00;;
84840;SDS011;75088;53.114;18.040;2023-12-20T20:10:37;5.90;;;2.90;;
84840;SDS011;75088;53.114;18.040;2023-12-20T20:11:45;4.70;;;2.00;;
84840;SDS011;75088;53.114;18.040;2023-12-20T20:12:53;7.00;;;2.10;;
84840;SDS011;75088;53.114;18.040;2023-12-20T20:14:00;5.80;;;1.80;;
84840;SDS011;75088;53.114;18.040;2023-12-20T20:15:07;5.60;;;2.00;;
84840;SDS011;75088;53.114;18.040;2023-12-20T20:16:15;5.50;;;2.10;;
84840;SDS011;75088;53.114;18.040;2023-12-20T20:17:22;8.40;;;2.90;;
84840;SDS011;75088;53.114;18.040;2023-12-20T20:18:29;7.20;;;3.00;;
84840;SDS011;75088;53.114;18.040;2023-12-20T20:19:36;5.50;;;2.80;;
84840;SDS011;75088;53.114;18.040;2023-12-20T20:20:43;7.70;;;3.00;;
84840;SDS011;75088;53.114;18.040;2023-12-20T20:21:50;8.90;;;2.60;;
84840;SDS011;75088;53.114;18.040;2023-12-20T20:22:57;7.30;;;2.50;;
84840;SDS011;75088;53.114;18.040;2023-12-20T20:24:06;7.90;;;2.00;;
84840;SDS011;75088;53.114;18.040;2023-12-20T20:25:13;7.30;;;2.70;;
84840;SDS011;75088;53.114;18.040;2023-12-20T20:26:20;7.50;;;2.30;;
84840;SDS011;75088;53.114;18.040;2023-12-20T20:27:27;7.90;;;2.80;;
84840;SDS011;75088;53.114;18.040;2023-12-20T20:28:34;5.90;;;2.80;;
84840;SDS011;75088;53.114;18.040;2023-12-20T20:29:41;6.50;;;2.80;;
84840;SDS011;75088;53.114;18.040;2023-12-20T20:30:49;7.60;;;3.00;;
84840;SDS011;75088;53.114;18.040;2023-12-20T20:31:56;8.90;;;2.30;;
84840;SDS011;75088;53.114;18.040;2023-12-20T20:33:03;5.90;;;2.30;;
84840;SDS011;75088;53.114;18.040;2023-12-20T20:34:10;5.20;;;2.20;;
84840;SDS011;75088;53.114;18.040;2023-12-20T20:35:17;8.20;;;2.20;;
84840;SDS011;75088;53.114;18.040;2023-12-20T20:36:25;6.90;;;1.90;;
84840;SDS011;75088;53.114;18.040;2023-12-20T20:37:32;5.40;;;2.20;;
84840;SDS011;75088;53.114;18.040;2023-12-20T20:38:40;7.90;;;2.90;;
84840;SDS011;75088;53.114;18.040;2023-12-20T20:39:46;5.50;;;2.50;;
84840;SDS011;75088;53.114;18.040;2023-12-20T20:40:53;7.50;;;2.60;;
84840;SDS011;75088;53.114;18.040;2023-12-20T20:42:02;6.60;;;2.50;;
84840;SDS011;75088;53.114;18.040;2023-12-20T20:43:10;6.20;;;2.50;;
84840;SDS011;75088;53.114;18.040;2023-12-20T20:44:17;6.50;;;2.30;;
84840;SDS011;75088;53.114;18.040;2023-12-20T20:45:24;6.00;;;1.80;;
84840;SDS011;75088;53.114;18.040;2023-12-20T20:46:32;6.20;;;2.00;;
84840;SDS011;75088;53.114;18.040;2023-12-20T20:47:40;4.90;;;2.00;;
84840;SDS011;75088;53.114;18.040;2023-12-20T20:48:46;6.00;;;2.20;;
84840;SDS011;75088;53.114;18.040;2023-12-20T20:49:53;7.10;;;2.30;;
84840;SDS011;75088;53.114;18.040;2023-12-20T20:51:00;7.00;;;2.00;;
84840;SDS011;75088;53.114;18.040;2023-12-20T20:52:07;5.40;;;2.50;;
84840;SDS011;75088;53.114;18.040;2023-12-20T20:53:14;4.50;;;1.70;;
84840;SDS011;75088;53.114;18.040;2023-12-20T20:54:21;6.80;;;2.20;;
84840;SDS011;75088;53.114;18.040;2023-12-20T20:55:28;5.40;;;2.00;;
84840;SDS011;75088;53.114;18.040;2023-12-20T20:56:35;5.90;;;2.30;;
84840;SDS011;75088;53.114;18.040;2023-12-20T20:57:42;6.00;;;2.30;;
84840;SDS011;75088;53.114;18.040;2023-12-20T20:58:51;5.90;;;2.30;;
84840;SDS011;75088;53.114;18.040;2023-12-20T20:59:58;5.60;;;2.00;;
84840;SDS011;75088;53.114;18.040;2023-12-20T21:01:05;4.60;;;1.80;;
84840;SDS011;75088;53.114;18.040;2023-12-20T21:02:12;5.70;;;2.30;;
84840;SDS011;75088;53.114;18.040;2023-12-20T21:03:19;5.70;;;2.40;;
84840;SDS011;75088;53.114;18.040;2023-12-20T21:04:26;6.90;;;2.20;;
84840;SDS011;75088;53.114;18.040;2023-12-20T21:05:33;5.60;;;2.00;;
84840;SDS011;75088;53.114;18.040;2023-12-20T21:06:40;8.90;;;2.60;;
84840;SDS011;75088;53.114;18.040;2023-12-20T21:07:47;7.00;;;2.50;;
84840;SDS011;75088;53.114;18.040;2023-12-20T21:08:54;7.20;;;2.40;;
84840;SDS011;75088;53.114;18.040;2023-12-20T21:10:01;5.50;;;2.00;;
84840;SDS011;75088;53.114;18.040;2023-12-20T21:11:09;6.30;;;2.00;;
84840;SDS011;75088;53.114;18.040;2023-12-20T21:12:18;6.50;;;2.10;;
84840;SDS011;75088;53.114;18.040;2023-12-20T21:13:25;6.00;;;2.40;;
84840;SDS011;75088;53.114;18.040;2023-12-20T21:14:33;7.50;;;2.50;;
84840;SDS011;75088;53.114;18.040;2023-12-20T21:15:40;5.30;;;2.10;;
84840;SDS011;75088;53.114;18.040;2023-12-20T21:16:47;5.90;;;2.20;;
84840;SDS011;75088;53.114;18.040;2023-12-20T21:17:54;5.40;;;2.30;;
84840;SDS011;75088;53.114;18.040;2023-12-20T21:19:01;8.30;;;2.50;;
84840;SDS011;75088;53.114;18.040;2023-12-20T21:20:09;5.40;;;2.10;;
84840;SDS011;75088;53.114;18.040;2023-12-20T21:21:17;7.00;;;2.10;;
84840;SDS011;75088;53.114;18.040;2023-12-20T21:22:24;5.00;;;2.00;;
84840;SDS011;75088;53.114;18.040;2023-12-20T21:23:32;5.80;;;2.80;;
84840;SDS011;75088;53.114;18.040;2023-12-20T21:24:39;6.10;;;2.30;;
84840;SDS011;75088;53.114;18.040;2023-12-20T21:25:46;5.80;;;2.40;;
84840;SDS011;75088;53.114;18.040;2023-12-20T21:26:53;4.60;;;2.70;;
84840;SDS011;75088;53.114;18.040;2023-12-20T21:27:59;6.70;;;1.80;;
84840;SDS011;75088;53.114;18.040;2023-12-20T21:29:06;5.30;;;2.30;;
84840;SDS011;75088;53.114;18.040;2023-12-20T21:30:14;6.80;;;2.40;;
84840;SDS011;75088;53.114;18.040;2023-12-20T21:31:21;7.40;;;2.60;;
84840;SDS011;75088;53.114;18.040;2023-12-20T21:32:28;7.90;;;2.60;;
84840;SDS011;75088;53.114;18.040;2023-12-20T21:33:35;7.80;;;2.60;;
84840;SDS011;75088;53.114;18.040;2023-12-20T21:34:44;6.00;;;2.20;;
84840;SDS011;75088;53.114;18.040;2023-12-20T21:35:51;4.70;;;1.90;;
84840;SDS011;75088;53.114;18.040;2023-12-20T21:36:58;6.00;;;2.10;;
84840;SDS011;75088;53.114;18.040;2023-12-20T21:38:05;5.50;;;2.20;;
84840;SDS011;75088;53.114;18.040;2023-12-20T21:39:12;6.50;;;2.70;;
84840;SDS011;75088;53.114;18.040;2023-12-20T21:40:19;8.00;;;2.30;;
84840;SDS011;75088;53.114;18.040;2023-12-20T21:41:26;7.00;;;2.30;;
84840;SDS011;75088;53.114;18.040;2023-12-20T21:42:33;6.30;;;2.50;;
84840;SDS011;75088;53.114;18.040;2023-12-20T21:43:40;9.30;;;2.70;;
84840;SDS011;75088;53.114;18.040;2023-12-20T21:44:46;8.00;;;2.20;;
84840;SDS011;75088;53.114;18.040;2023-12-20T21:45:53;10.30;;;3.20;;
84840;SDS011;75088;53.114;18.040;2023-12-20T21:47:00;5.30;;;2.50;;
84840;SDS011;75088;53.114;18.040;2023-12-20T21:48:08;7.00;;;2.90;;
84840;SDS011;75088;53.114;18.040;2023-12-20T21:49:15;7.10;;;2.60;;
84840;SDS011;75088;53.114;18.040;2023-12-20T21:50:23;6.00;;;2.60;;
84840;SDS011;75088;53.114;18.040;2023-12-20T21:51:30;7.40;;;2.60;;
84840;SDS011;75088;53.114;18.040;2023-12-20T21:52:37;8.10;;;3.10;;
84840;SDS011;75088;53.114;18.040;2023-12-20T21:53:44;5.60;;;2.10;;
84840;SDS011;75088;53.114;18.040;2023-12-20T21:54:51;6.10;;;2.10;;
84840;SDS011;75088;53.114;18.040;2023-12-20T21:55:57;7.40;;;2.30;;
84840;SDS011;75088;53.114;18.040;2023-12-20T21:57:05;11.00;;;2.90;;
84840;SDS011;75088;53.114;18.040;2023-12-20T21:58:12;7.00;;;2.40;;
84840;SDS011;75088;53.114;18.040;2023-12-20T21:59:19;5.60;;;2.90;;
84840;SDS011;75088;53.114;18.040;2023-12-20T22:00:29;6.00;;;2.70;;
84840;SDS011;75088;53.114;18.040;2023-12-20T22:01:39;6.20;;;2.40;;
84840;SDS011;75088;53.114;18.040;2023-12-20T22:02:47;8.60;;;2.70;;
84840;SDS011;75088;53.114;18.040;2023-12-20T22:03:54;7.10;;;2.00;;
84840;SDS011;75088;53.114;18.040;2023-12-20T22:05:01;8.30;;;2.60;;
84840;SDS011;75088;53.114;18.040;2023-12-20T22:06:08;6.40;;;2.70;;
84840;SDS011;75088;53.114;18.040;2023-12-20T22:07:15;6.80;;;2.80;;
84840;SDS011;75088;53.114;18.040;2023-12-20T22:08:23;9.20;;;2.90;;
84840;SDS011;75088;53.114;18.040;2023-12-20T22:09:30;8.30;;;2.70;;
84840;SDS011;75088;53.114;18.040;2023-12-20T22:10:37;8.40;;;2.50;;
84840;SDS011;75088;53.114;18.040;2023-12-20T22:11:45;8.40;;;3.00;;
84840;SDS011;75088;53.114;18.040;2023-12-20T22:12:52;6.70;;;2.40;;
84840;SDS011;75088;53.114;18.040;2023-12-20T22:13:58;7.60;;;2.60;;
84840;SDS011;75088;53.114;18.040;2023-12-20T22:15:07;6.60;;;2.60;;
84840;SDS011;75088;53.114;18.040;2023-12-20T22:16:14;7.50;;;2.90;;
84840;SDS011;75088;53.114;18.040;2023-12-20T22:17:21;10.10;;;2.80;;
84840;SDS011;75088;53.114;18.040;2023-12-20T22:18:28;7.90;;;3.30;;
84840;SDS011;75088;53.114;18.040;2023-12-20T22:19:35;9.00;;;2.60;;
84840;SDS011;75088;53.114;18.040;2023-12-20T22:20:42;7.30;;;2.40;;
84840;SDS011;75088;53.114;18.040;2023-12-20T22:21:49;8.70;;;2.80;;
84840;SDS011;75088;53.114;18.040;2023-12-20T22:22:56;5.80;;;2.80;;
84840;SDS011;75088;53.114;18.040;2023-12-20T22:24:04;7.10;;;2.60;;
84840;SDS011;75088;53.114;18.040;2023-12-20T22:25:11;7.90;;;2.70;;
84840;SDS011;75088;53.114;18.040;2023-12-20T22:26:18;10.40;;;3.00;;
84840;SDS011;75088;53.114;18.040;2023-12-20T22:27:25;7.90;;;3.20;;
84840;SDS011;75088;53.114;18.040;2023-12-20T22:28:32;8.70;;;2.70;;
84840;SDS011;75088;53.114;18.040;2023-12-20T22:29:40;9.90;;;2.50;;
84840;SDS011;75088;53.114;18.040;2023-12-20T22:30:47;7.10;;;2.40;;
84840;SDS011;75088;53.114;18.040;2023-12-20T22:31:54;10.20;;;2.50;;
84840;SDS011;75088;53.114;18.040;2023-12-20T22:33:02;6.20;;;2.80;;
84840;SDS011;75088;53.114;18.040;2023-12-20T22:34:09;9.40;;;2.60;;
84840;SDS011;75088;53.114;18.040;2023-12-20T22:35:16;8.90;;;3.00;;
84840;SDS011;75088;53.114;18.040;2023-12-20T22:36:23;8.00;;;2.50;;
84840;SDS011;75088;53.114;18.040;2023-12-20T22:37:30;9.60;;;2.90;;
84840;SDS011;75088;53.114;18.040;2023-12-20T22:38:37;8.00;;;3.00;;
84840;SDS011;75088;53.114;18.040;2023-12-20T22:39:45;8.00;;;2.40;;
84840;SDS011;75088;53.114;18.040;2023-12-20T22:40:52;8.70;;;2.50;;
84840;SDS011;75088;53.114;18.040;2023-12-20T22:41:58;10.30;;;2.70;;
84840;SDS011;75088;53.114;18.040;2023-12-20T22:43:05;9.80;;;3.00;;
84840;SDS011;75088;53.114;18.040;2023-12-20T22:44:12;7.80;;;3.00;;
84840;SDS011;75088;53.114;18.040;2023-12-20T22:45:21;8.70;;;3.40;;
84840;SDS011;75088;53.114;18.040;2023-12-20T22:46:28;7.30;;;3.20;;
84840;SDS011;75088;53.114;18.040;2023-12-20T22:47:35;9.20;;;2.50;;
84840;SDS011;75088;53.114;18.040;2023-12-20T22:48:42;9.90;;;2.70;;
84840;SDS011;75088;53.114;18.040;2023-12-20T22:49:49;8.70;;;3.20;;
84840;SDS011;75088;53.114;18.040;2023-12-20T22:50:56;6.70;;;2.80;;
84840;SDS011;75088;53.114;18.040;2023-12-20T22:52:04;9.00;;;2.60;;
84840;SDS011;75088;53.114;18.040;2023-12-20T22:53:11;6.30;;;3.60;;
84840;SDS011;75088;53.114;18.040;2023-12-20T22:54:18;9.30;;;3.40;;
84840;SDS011;75088;53.114;18.040;2023-12-20T22:55:25;7.30;;;2.70;;
84840;SDS011;75088;53.114;18.040;2023-12-20T22:56:32;9.80;;;2.90;;
84840;SDS011;75088;53.114;18.040;2023-12-20T22:57:39;5.10;;;2.60;;
84840;SDS011;75088;53.114;18.040;2023-12-20T22:58:46;8.80;;;3.10;;
84840;SDS011;75088;53.114;18.040;2023-12-20T22:59:53;12.30;;;3.10;;
84840;SDS011;75088;53.114;18.040;2023-12-20T23:00:59;7.50;;;3.00;;
84840;SDS011;75088;53.114;18.040;2023-12-20T23:02:06;8.30;;;3.30;;
84840;SDS011;75088;53.114;18.040;2023-12-20T23:03:15;10.00;;;3.30;;
84840;SDS011;75088;53.114;18.040;2023-12-20T23:04:21;6.80;;;2.50;;
84840;SDS011;75088;53.114;18.040;2023-12-20T23:05:29;5.60;;;2.40;;
84840;SDS011;75088;53.114;18.040;2023-12-20T23:06:36;10.50;;;2.70;;
84840;SDS011;75088;53.114;18.040;2023-12-20T23:07:43;10.00;;;2.80;;
84840;SDS011;75088;53.114;18.040;2023-12-20T23:08:50;7.10;;;2.80;;
84840;SDS011;75088;53.114;18.040;2023-12-20T23:09:57;7.40;;;3.40;;
84840;SDS011;75088;53.114;18.040;2023-12-20T23:11:04;8.00;;;2.90;;
84840;SDS011;75088;53.114;18.040;2023-12-20T23:12:11;9.40;;;3.30;;
84840;SDS011;75088;53.114;18.040;2023-12-20T23:13:18;7.90;;;2.80;;
84840;SDS011;75088;53.114;18.040;2023-12-20T23:14:25;9.30;;;3.90;;
84840;SDS011;75088;53.114;18.040;2023-12-20T23:15:32;8.60;;;2.80;;
84840;SDS011;75088;53.114;18.040;2023-12-20T23:16:39;8.20;;;2.80;;
84840;SDS011;75088;53.114;18.040;2023-12-20T23:17:47;8.00;;;2.90;;
84840;SDS011;75088;53.114;18.040;2023-12-20T23:18:55;6.60;;;3.50;;
84840;SDS011;75088;53.114;18.040;2023-12-20T23:20:02;9.30;;;3.30;;
84840;SDS011;75088;53.114;18.040;2023-12-20T23:21:10;9.60;;;3.00;;
84840;SDS011;75088;53.114;18.040;2023-12-20T23:22:20;8.20;;;3.40;;
84840;SDS011;75088;53.114;18.040;2023-12-20T23:23:28;7.60;;;3.10;;
84840;SDS011;75088;53.114;18.040;2023-12-20T23:24:35;7.80;;;2.70;;
84840;SDS011;75088;53.114;18.040;2023-12-20T23:25:42;7.40;;;2.90;;
84840;SDS011;75088;53.114;18.040;2023-12-20T23:26:49;9.40;;;2.80;;
84840;SDS011;75088;53.114;18.040;2023-12-20T23:27:56;11.00;;;3.70;;
84840;SDS011;75088;53.114;18.040;2023-12-20T23:29:03;11.30;;;3.60;;
84840;SDS011;75088;53.114;18.040;2023-12-20T23:30:11;8.20;;;2.90;;
84840;SDS011;75088;53.114;18.040;2023-12-20T23:31:23;9.70;;;3.40;;
84840;SDS011;75088;53.114;18.040;2023-12-20T23:32:30;6.90;;;2.10;;
84840;SDS011;75088;53.114;18.040;2023-12-20T23:33:37;9.60;;;3.20;;
84840;SDS011;75088;53.114;18.040;2023-12-20T23:34:45;7.80;;;3.20;;
84840;SDS011;75088;53.114;18.040;2023-12-20T23:35:52;6.70;;;3.00;;
84840;SDS011;75088;53.114;18.040;2023-12-20T23:36:59;7.60;;;2.70;;
84840;SDS011;75088;53.114;18.040;2023-12-20T23:38:06;8.40;;;2.70;;
84840;SDS011;75088;53.114;18.040;2023-12-20T23:39:13;10.40;;;3.40;;
84840;SDS011;75088;53.114;18.040;2023-12-20T23:40:20;7.10;;;3.00;;
84840;SDS011;75088;53.114;18.040;2023-12-20T23:41:29;7.70;;;2.60;;
84840;SDS011;75088;53.114;18.040;2023-12-20T23:42:35;7.00;;;2.50;;
84840;SDS011;75088;53.114;18.040;2023-12-20T23:43:42;9.40;;;2.90;;
84840;SDS011;75088;53.114;18.040;2023-12-20T23:44:49;11.70;;;3.70;;
84840;SDS011;75088;53.114;18.040;2023-12-20T23:45:56;11.10;;;3.70;;
84840;SDS011;75088;53.114;18.040;2023-12-20T23:47:03;8.30;;;3.20;;
84840;SDS011;75088;53.114;18.040;2023-12-20T23:48:10;6.80;;;2.90;;
84840;SDS011;75088;53.114;18.040;2023-12-20T23:49:17;10.60;;;3.70;;
84840;SDS011;75088;53.114;18.040;2023-12-20T23:50:26;10.10;;;2.40;;
84840;SDS011;75088;53.114;18.040;2023-12-20T23:51:33;7.70;;;2.40;;
84840;SDS011;75088;53.114;18.040;2023-12-20T23:52:40;6.20;;;2.80;;
84840;SDS011;75088;53.114;18.040;2023-12-20T23:53:47;5.50;;;2.40;;
84840;SDS011;75088;53.114;18.040;2023-12-20T23:54:54;6.30;;;2.70;;
84840;SDS011;75088;53.114;18.040;2023-12-20T23:56:01;7.60;;;2.40;;
84840;SDS011;75088;53.114;18.040;2023-12-20T23:57:08;6.30;;;2.80;;
84840;SDS011;75088;53.114;18.040;2023-12-20T23:58:15;8.00;;;2.80;;
84840;SDS011;75088;53.114;18.040;2023-12-20T23:59:22;8.90;;;3.10;;
